Weather observations for the past three days for
Tonopah, Tonopah Airport
Imperial (Metric)
Date Time (pdt) Wind (mph) Vis. (mi.) Weather Sky Cond. Temperature (ºF) Relative Humidity Wind Chill (°F) Heat Index (°F) Pressure Precipitation (in)
Air Dwpt 6 hour altimeter (in) sea level (mb) 1 hr 3 hr 6 hr
Max. Min.
10 09:56 E 6 10.00 Fair CLR 73 16 11% 30.2 1015.4
10 08:56 N 3 10.00 Fair CLR 69.1 16 13% 30.2 1015.7
10 07:56 N 10 10.00 Fair CLR 63 18 17% 30.2 1016.0
10 06:56 N 10 10.00 Fair CLR 55.9 17.1 22% 30.19 1015.5
10 05:56 N 12 10.00 Fair CLR 52 15.1 23% 30.17 1015.5
10 04:56 N 13 10.00 Fair CLR 53.1 14 62.1 53.1 21% 30.16 1014.8
10 03:56 N 15 10.00 Fair CLR 54 14 20% 30.15 1014.3
10 02:56 N 16 10.00 Fair CLR 55.9 12.9 18% 30.14 1014.1
10 01:56 N 14 10.00 Fair CLR 55.9 14 19% 30.14 1013.6
10 00:56 N 15 10.00 Fair CLR 57.9 15.1 18% 30.14 1013.8
09 23:56 N 15 10.00 Fair CLR 60.1 17.1 19% 30.14 1013.8
09 22:56 N 12 10.00 Fair CLR 62.1 18 81 62.1 18% 30.12 1013.2
09 21:56 N 9 10.00 Fair CLR 68 19.9 16% 30.1 1012.2
09 20:56 N 8 10.00 Fair CLR 68 19.9 16% 30.08 1011.7
09 19:56 NW 9 10.00 Fair CLR 73 21 14% 30.06 1011.1
09 18:56 NW 9 10.00 Fair CLR 79 21 11% 77 30.04 1010.9
09 17:56 NW 8 10.00 Fair CLR 80.1 19 10% 78 30.05 1011.4
09 16:56 NW 15 G 24 10.00 Fair CLR 81 19 82 73.9 10% 79 30.05 1011.3
09 15:56 W 13 G 22 10.00 Fair CLR 82 17.1 9% 80 30.06 1011.6
09 14:56 SE 7 10.00 Fair CLR 80.1 19 10% 78 30.09 1012.5
09 13:56 NW 12 G 21 10.00 Fair CLR 81 23 12% 79 30.1 1012.7
09 12:56 Calm 10.00 Fair CLR 77 23 13% 76 30.12 1013.7
09 11:56 Vrbl 5 10.00 Fair CLR 75.9 24.1 14% 76 30.14 1014.1
09 10:56 Vrbl 6 10.00 Fair CLR 73.9 25 73.9 48.9 16% 30.15 1014.2
09 09:56 N 5 10.00 Fair CLR 72 24.1 17% 30.15 1014.4
09 08:56 N 13 10.00 Fair CLR 69.1 27 21% 30.15 1014.4
09 07:56 N 17 10.00 Fair CLR 62.1 26.1 25% 30.15 1014.6
09 06:56 N 15 10.00 Fair CLR 54 26.1 34% 30.14 1014.5
09 05:56 N 10 10.00 Fair CLR 50 25 38% 46 30.12 1014.1
09 04:56 N 7 10.00 Fair CLR 50 23 61 48.9 35% 48 30.11 1013.7
09 03:56 N 8 10.00 Fair CLR 50 23 35% 47 30.1 1013.4
09 02:56 N 8 10.00 Fair CLR 52 21 30% 30.11 1013.2
09 01:56 N 12 10.00 Fair CLR 55 21 26% 30.11 1013.0
09 00:56 N 12 10.00 Fair CLR 55 18 23% 30.11 1013.0
08 23:56 NW 10 10.00 Fair CLR 57 15.1 19% 30.09 1012.6
08 22:56 N 13 10.00 Fair CLR 61 12.9 81 60.1 15% 30.1 1012.6
08 21:56 N 10 10.00 Fair CLR 61 12.9 15% 30.09 1012.9
08 20:56 NW 12 10.00 Fair CLR 66.9 12 12% 30.07 1011.7
08 19:56 NW 8 10.00 Fair CLR 70 10.9 10% 30.05 1011.8
08 18:56 N 13 10.00 Fair CLR 77 12 8% 76 30.04 1010.9
08 17:56 N 12 10.00 Fair CLR 80.1 12 7% 78 30.04 1011.0
08 16:56 NW 9 10.00 Fair CLR 80.1 10.9 81 73 7% 78 30.05 1011.2
08 15:56 W 9 10.00 Fair CLR 80.1 12.9 8% 78 30.06 1010.9
08 14:56 W 13 G 24 10.00 Fair CLR 80.1 14 8% 78 30.08 1011.2
08 13:56 NW 20 G 33 10.00 Fair CLR 79 15.1 9% 77 30.11 1012.5
08 12:56 NW 15 G 21 10.00 Fair CLR 78.1 16 9% 77 30.12 1013.1
08 11:56 NW 17 G 29 10.00 Fair CLR 75.9 18 11% 75 30.14 1013.7
08 10:56 NW 15 G 22 10.00 Fair CLR 73 27 73 48 18% 30.16 1014.8
08 09:56 NW 16 10.00 Fair CLR 69.1 30 23% 30.16 1014.9
08 08:56 NW 15 10.00 Fair CLR 66.9 32 27% 30.16 1015.0
08 07:56 N 7 10.00 Fair CLR 57.9 30 35% 30.16 1015.2
08 06:56 N 7 10.00 Fair CLR 55 30 38% 30.15 1014.6
08 05:56 N 12 10.00 Fair CLR 52 30 43% 30.13 1014.2
08 04:56 NE 6 10.00 Fair CLR 53.1 30.9 63 52 43% 30.12 1013.5
08 03:56 Calm 10.00 Fair CLR 57.9 30 35% 30.12 1013.0
08 02:56 N 12 G 21 10.00 Fair CLR 62.1 30 30% 30.11 1012.5
08 01:56 N 8 10.00 Fair CLR 59 28 31% 30.12 1013.1
08 00:56 W 16 10.00 Fair CLR 59 24.1 26% 30.12 1013.6
07 23:56 NW 13 10.00 Fair CLR 61 23 23% 30.11 1013.3
07 22:56 NW 8 10.00 Fair CLR 61 27 80.1 57.9 27% 30.11 1013.2
07 21:56 NW 5 10.00 Fair CLR 62.1 28.9 29% 30.1 1013.4
07 20:56 NW 8 10.00 Fair CLR 64.9 28 25% 30.08 1013.2
07 19:56 NW 8 10.00 Fair CLR 72 21 15% 30.05 1011.8
07 18:56 N 15 G 25 10.00 Fair CLR 77 21 12% 76 30.04 1012.0
07 17:56 N 18 G 25 10.00 Fair CLR 79 25 14% 78 30.04 1011.8
07 16:56 NW 9 G 22 10.00 Fair CLR 80.1 23 81 70 12% 78 30.04 1011.3
07 15:56 Calm 10.00 Fair CLR 79 21.9 12% 77 30.05 1011.8
07 14:56 W 9 G 23 10.00 Fair CLR 78.1 21 12% 77 30.08 1012.6
07 13:56 Calm 10.00 Fair CLR 75.9 23 14% 76 30.11 1013.8
07 12:56 W 13 G 18 10.00 Fair CLR 75 24.1 15% 75 30.13 1014.3
07 11:56 NW 7 10.00 Fair CLR 73 27 18% 30.15 1015.1
07 10:56 Vrbl 3 10.00 Fair CLR 70 30.9 70 44.1 23% 30.17 1015.7
Date Time (pdt) Wind (mph) Vis. (mi.) Weather Sky Cond. Air Dwpt Max. Min. Relative Humidity Wind Chill (°F) Heat Index (°F) altimeter (in) sea level (mb) 1 hr 3 hr 6 hr
6 hour
Temperature (ºF) Pressure Precipitation (in)